Time;durP1;ratioP1;P1;durP2;ratioP2;P2;SDS_P1;SDS_P2;PMS_P1;PMS_P2;Temp;Humidity;BMP_temperature;BMP_pressure;BME280_temperature;BME280_humidity;BME280_pressure;Samples;Min_cycle;Max_cycle;Signal;HPM_P1;HPM_P2
2024/01/01 00:02:47;;;;;;;;;;;;;;;1.99;100.00;98512.94;436453;1253;126498;-62
2024/01/01 00:12:52;;;;;;;;;;;;;;;1.87;100.00;98494.64;437297;1254;126495;-64
2024/01/01 00:22:56;;;;;;;;;;;;;;;1.73;100.00;98511.83;436512;1250;126990;-65
2024/01/01 00:33:00;;;;;;;;;;;;;;;1.55;100.00;98516.59;437039;1251;126805;-63
2024/01/01 00:43:05;;;;;;;;;;;;;;;1.40;100.00;98509.48;437620;1250;126264;-63
2024/01/01 00:53:10;;;;;;;;;;;;;;;1.26;100.00;98503.40;436134;1254;126084;-64
2024/01/01 01:03:15;;;;;;;;;;;;;;;1.10;100.00;98491.82;436112;1251;128568;-63
2024/01/01 01:13:20;;;;;;;;;;;;;;;1.14;100.00;98497.18;436692;1250;125285;-64
2024/01/01 01:23:24;;;;;;;;;;;;;;;1.20;100.00;98507.05;436188;1250;126819;-64
2024/01/01 01:33:29;;;;;;;;;;;;;;;1.24;100.00;98507.06;436328;1255;126743;-64
2024/01/01 01:43:33;;;;;;;;;;;;;;;1.24;100.00;98501.73;436597;1251;126287;-65
2024/01/01 01:53:38;;;;;;;;;;;;;;;1.25;100.00;98491.85;436374;1251;125618;-64
2024/01/01 02:03:45;;;;;;;;;;;;;;;1.25;100.00;98491.17;436185;1251;126182;-64
2024/01/01 02:13:49;;;;;;;;;;;;;;;1.21;100.00;98492.22;435493;1256;126067;-64
2024/01/01 02:23:54;;;;;;;;;;;;;;;1.13;100.00;98487.04;435562;1250;125963;-64
2024/01/01 02:33:59;;;;;;;;;;;;;;;1.04;100.00;98488.28;435572;1250;126754;-65
2024/01/01 02:44:04;;;;;;;;;;;;;;;1.01;100.00;98504.77;436014;1251;127270;-64
2024/01/01 02:54:09;;;;;;;;;;;;;;;0.99;100.00;98511.93;435783;1251;125413;-65
2024/01/01 03:04:13;;;;;;;;;;;;;;;0.96;100.00;98505.30;434932;1255;126487;-64
2024/01/01 03:14:18;;;;;;;;;;;;;;;0.97;100.00;98497.84;435008;1250;125735;-64
2024/01/01 03:24:22;;;;;;;;;;;;;;;0.97;100.00;98494.23;435004;1250;126237;-64
2024/01/01 03:34:26;;;;;;;;;;;;;;;0.98;100.00;98484.40;435009;1255;127698;-65
2024/01/01 03:44:31;;;;;;;;;;;;;;;1.05;100.00;98489.10;435030;1250;126399;-64
2024/01/01 03:54:35;;;;;;;;;;;;;;;1.12;100.00;98498.27;435114;1250;127100;-63
2024/01/01 04:04:43;;;;;;;;;;;;;;;1.19;100.00;98495.39;435098;1251;125621;-65
2024/01/01 04:14:47;;;;;;;;;;;;;;;1.28;100.00;98488.48;434925;1255;777515;-63
2024/01/01 04:24:52;;;;;;;;;;;;;;;1.37;100.00;98481.35;435513;1251;126672;-64
2024/01/01 04:34:56;;;;;;;;;;;;;;;1.46;100.00;98470.94;435125;1251;127294;-64
2024/01/01 04:45:01;;;;;;;;;;;;;;;1.52;100.00;98470.17;435418;1251;125885;-62
2024/01/01 04:55:06;;;;;;;;;;;;;;;1.61;100.00;98452.70;436723;1256;127346;-64
2024/01/01 05:05:11;;;;;;;;;;;;;;;1.70;100.00;98449.39;435532;1251;125686;-64
2024/01/01 05:15:16;;;;;;;;;;;;;;;1.86;100.00;98450.36;435237;1250;126789;-63
2024/01/01 05:25:21;;;;;;;;;;;;;;;2.04;100.00;98434.65;436630;1254;125500;-64
2024/01/01 05:35:26;;;;;;;;;;;;;;;2.20;100.00;98431.66;434751;1251;126189;-62
2024/01/01 05:45:30;;;;;;;;;;;;;;;2.33;100.00;98434.85;434845;1252;126122;-63
2024/01/01 05:55:34;;;;;;;;;;;;;;;2.42;100.00;98435.11;435554;1251;126410;-63
2024/01/01 06:05:39;;;;;;;;;;;;;;;2.49;100.00;98431.98;435709;1254;125600;-63
2024/01/01 06:15:44;;;;;;;;;;;;;;;2.56;100.00;98426.45;435902;1255;126422;-65
2024/01/01 06:25:48;;;;;;;;;;;;;;;2.63;100.00;98433.55;435935;1254;126619;-64
2024/01/01 06:35:53;;;;;;;;;;;;;;;2.68;100.00;98437.98;435566;1256;126739;-64
2024/01/01 06:45:57;;;;;;;;;;;;;;;2.72;100.00;98445.21;435728;1254;126795;-65
2024/01/01 06:56:02;;;;;;;;;;;;;;;2.74;100.00;98454.13;435542;1255;127481;-63
2024/01/01 07:06:07;;;;;;;;;;;;;;;2.74;100.00;98453.25;435590;1255;125622;-64
2024/01/01 07:16:12;;;;;;;;;;;;;;;2.75;100.00;98440.22;435944;1256;126106;-63
2024/01/01 07:26:16;;;;;;;;;;;;;;;2.75;100.00;98444.01;438763;1251;125975;-63
2024/01/01 07:36:21;;;;;;;;;;;;;;;2.73;100.00;98451.70;434923;1254;127705;-63
2024/01/01 07:46:28;;;;;;;;;;;;;;;2.71;100.00;98455.48;436743;1254;126400;-64
2024/01/01 07:56:32;;;;;;;;;;;;;;;2.70;100.00;98461.54;434781;1255;126215;-63
2024/01/01 08:06:37;;;;;;;;;;;;;;;2.72;100.00;98461.29;435548;1255;125908;-62
2024/01/01 08:16:41;;;;;;;;;;;;;;;2.74;100.00;98453.56;434862;1256;127350;-64
2024/01/01 08:26:46;;;;;;;;;;;;;;;2.80;100.00;98450.16;434897;1255;126383;-63
2024/01/01 08:36:50;;;;;;;;;;;;;;;2.85;100.00;98450.43;435236;1255;126624;-64
2024/01/01 08:46:54;;;;;;;;;;;;;;;2.92;100.00;98457.33;434942;1255;125960;-63
2024/01/01 08:56:59;;;;;;;;;;;;;;;2.99;100.00;98466.86;435033;1251;128522;-63
2024/01/01 09:07:04;;;;;;;;;;;;;;;3.03;100.00;98464.27;435748;1256;125922;-64
2024/01/01 09:17:09;;;;;;;;;;;;;;;3.13;100.00;98459.76;435425;1254;127201;-64
2024/01/01 09:27:13;;;;;;;;;;;;;;;3.23;100.00;98451.94;435356;1251;127572;-64
2024/01/01 09:37:18;;;;;;;;;;;;;;;3.26;100.00;98449.73;435574;1251;127682;-65
2024/01/01 09:47:23;;;;;;;;;;;;;;;3.30;100.00;98448.46;435692;1251;126472;-63
2024/01/01 09:57:28;;;;;;;;;;;;;;;3.37;100.00;98438.45;438638;1251;126030;-63
2024/01/01 10:07:32;;;;;;;;;;;;;;;3.44;100.00;98437.56;436492;1251;125706;-63
2024/01/01 10:17:36;;;;;;;;;;;;;;;3.50;100.00;98440.70;436359;1251;126548;-66
2024/01/01 10:27:43;;;;;;;;;;;;;;;3.57;100.00;98435.85;435952;1254;127581;-63
2024/01/01 10:37:48;;;;;;;;;;;;;;;3.59;100.00;98431.39;436127;1254;126443;-64
2024/01/01 10:47:54;;;;;;;;;;;;;;;3.62;100.00;98438.84;435585;1251;126628;-65
2024/01/01 10:58:10;;;;;;;;;;;;;;;3.64;100.00;98431.83;436019;1251;126410;-64
2024/01/01 11:08:25;;;;;;;;;;;;;;;3.67;100.00;98421.64;435957;1251;126412;-63
2024/01/01 11:18:33;;;;;;;;;;;;;;;3.70;100.00;98411.43;435465;1251;126600;-64
2024/01/01 11:28:43;;;;;;;;;;;;;;;3.74;100.00;98403.06;436632;1254;127085;-64
2024/01/01 11:38:51;;;;;;;;;;;;;;;3.80;100.00;98399.11;436329;1254;127409;-62
2024/01/01 11:48:59;;;;;;;;;;;;;;;3.81;100.00;98390.23;437505;1254;125808;-64
2024/01/01 11:59:06;;;;;;;;;;;;;;;3.88;100.00;98385.20;436921;1251;127246;-63
2024/01/01 12:09:11;;;;;;;;;;;;;;;3.90;100.00;98380.55;436250;1251;127242;-63
2024/01/01 12:19:19;;;;;;;;;;;;;;;3.95;100.00;98382.00;436068;1254;125770;-64
2024/01/01 12:29:24;;;;;;;;;;;;;;;3.98;100.00;98378.77;437084;1251;126182;-64
2024/01/01 12:39:28;;;;;;;;;;;;;;;3.99;100.00;98372.77;436120;1251;126258;-63
2024/01/01 12:49:34;;;;;;;;;;;;;;;3.98;100.00;98364.36;436239;1254;126146;-63
2024/01/01 12:59:39;;;;;;;;;;;;;;;3.96;100.00;98355.98;436200;1254;126183;-66
2024/01/01 13:09:44;;;;;;;;;;;;;;;3.97;100.00;98352.81;437533;1251;126980;-64
2024/01/01 13:19:48;;;;;;;;;;;;;;;3.92;100.00;98351.34;436366;1251;125657;-64
2024/01/01 13:29:53;;;;;;;;;;;;;;;3.87;100.00;98351.45;435707;1254;126639;-64
2024/01/01 13:39:57;;;;;;;;;;;;;;;3.76;100.00;98366.06;436472;1252;126592;-64
2024/01/01 13:50:03;;;;;;;;;;;;;;;3.66;100.00;98374.95;435847;1250;127390;-64
2024/01/01 14:00:10;;;;;;;;;;;;;;;3.60;100.00;98375.84;436451;1254;126269;-64
2024/01/01 14:17:17;;;;;;;17.40;11.80;;;;;;;3.57;100.00;98369.75;423748;1295;601108;-67
2024/01/01 14:27:23;;;;;;;16.30;11.50;;;;;;;3.46;100.00;98375.84;432103;1266;189684;-67
2024/01/01 14:37:30;;;;;;;19.30;12.80;;;;;;;3.35;100.00;98381.64;432158;1270;138877;-66
2024/01/01 14:47:34;;;;;;;;;;;;;;;3.24;100.00;98382.36;433305;1259;139587;-67
2024/01/01 14:57:40;;;;;;;19.00;11.40;;;;;;;3.16;100.00;98385.23;434825;1259;185060;-66
2024/01/01 15:07:47;;;;;;;19.60;12.50;;;;;;;3.10;100.00;98386.23;434176;1259;138568;-68
2024/01/01 15:17:53;;;;;;;20.30;11.90;;;;;;;3.07;100.00;98397.29;435547;1259;139223;-70
2024/01/01 15:28:02;;;;;;;18.10;12.50;;;;;;;3.04;100.00;98402.96;432882;1259;139770;-69
2024/01/01 15:38:08;;;;;;;16.50;11.20;;;;;;;3.01;100.00;98410.73;434368;1261;138545;-68
2024/01/01 15:48:14;;;;;;;22.40;14.20;;;;;;;2.96;100.00;98412.38;435153;1263;139897;-66
2024/01/01 15:58:22;;;;;;;22.70;14.00;;;;;;;2.90;100.00;98424.77;433212;1260;139004;-64
2024/01/01 16:08:28;;;;;;;18.90;13.40;;;;;;;2.88;100.00;98422.42;434098;1259;139504;-69
2024/01/01 16:18:34;;;;;;;16.40;12.00;;;;;;;2.88;100.00;98431.11;436060;1259;138729;-70
2024/01/01 16:28:41;;;;;;;18.60;12.40;;;;;;;2.88;100.00;98435.61;437027;1263;139084;-71
2024/01/01 16:38:48;;;;;;;17.30;12.40;;;;;;;2.89;100.00;98444.38;436644;1263;139847;-71
2024/01/01 16:48:54;;;;;;;20.90;12.60;;;;;;;2.89;100.00;98456.13;435092;1259;139346;-68
2024/01/01 16:59:00;;;;;;;20.40;13.30;;;;;;;2.88;100.00;98460.98;435554;1259;139421;-67
2024/01/01 17:09:07;;;;;;;20.20;12.50;;;;;;;2.96;100.00;98466.98;436683;1261;152746;-65
2024/01/01 17:19:13;;;;;;;18.60;12.10;;;;;;;3.05;100.00;98476.73;432977;1259;139163;-68
2024/01/01 17:29:19;;;;;;;16.60;12.30;;;;;;;3.13;100.00;98484.83;432887;1259;142381;-62
2024/01/01 17:39:25;;;;;;;16.60;13.30;;;;;;;3.21;100.00;98491.00;433025;1262;139160;-64
2024/01/01 17:49:33;;;;;;;22.80;14.10;;;;;;;3.23;100.00;98502.66;432812;1263;139896;-60
2024/01/01 17:59:39;;;;;;;20.20;15.00;;;;;;;3.24;100.00;98515.44;437181;1260;139566;-67
2024/01/01 18:09:45;;;;;;;17.40;13.20;;;;;;;3.22;100.00;98520.86;434411;1264;140172;-64
2024/01/01 18:19:54;;;;;;;21.50;14.30;;;;;;;3.21;100.00;98532.13;433345;1262;139450;-69
2024/01/01 18:30:02;;;;;;;22.70;14.80;;;;;;;3.23;100.00;98536.23;433173;1264;140056;-65
2024/01/01 18:40:11;;;;;;;21.10;14.00;;;;;;;3.20;100.00;98537.73;432940;1263;139290;-60
2024/01/01 18:50:19;;;;;;;20.90;13.30;;;;;;;3.16;100.00;98537.92;437474;1259;140763;-63
2024/01/01 19:00:26;;;;;;;23.70;12.90;;;;;;;3.17;100.00;98542.05;433331;1260;139165;-62
2024/01/01 19:10:33;;;;;;;17.40;9.60;;;;;;;3.21;100.00;98550.62;433855;1263;139665;-63
2024/01/01 19:20:39;;;;;;;17.50;10.00;;;;;;;3.30;100.00;98547.93;433232;1259;139629;-62
2024/01/01 19:30:45;;;;;;;14.30;9.50;;;;;;;3.34;100.00;98551.38;435179;1260;139566;-62
2024/01/01 19:40:51;;;;;;;15.60;10.70;;;;;;;3.38;100.00;98559.30;433363;1264;139756;-62
2024/01/01 19:50:57;;;;;;;12.80;8.80;;;;;;;3.43;100.00;98561.98;434008;1263;140981;-61
2024/01/01 20:01:04;;;;;;;14.70;9.80;;;;;;;3.45;100.00;98567.63;432816;1259;139565;-62
2024/01/01 20:11:18;;;;;;;13.10;8.50;;;;;;;3.42;100.00;98568.81;432674;1262;139989;-62
2024/01/01 20:21:26;;;;;;;12.00;8.00;;;;;;;3.38;100.00;98567.80;432656;1261;139303;-62
2024/01/01 20:31:30;;;;;;;;;;;;;;;3.27;100.00;98568.69;432777;1264;139469;-61
2024/01/01 20:41:37;;;;;;;14.30;10.00;;;;;;;3.15;100.00;98572.04;432484;1262;125360;-62
2024/01/01 20:51:43;;;;;;;16.60;10.20;;;;;;;3.06;100.00;98571.29;432682;1262;139418;-63
2024/01/01 21:01:49;;;;;;;13.80;8.50;;;;;;;3.01;100.00;98572.05;432624;1263;140244;-62
2024/01/01 21:11:55;;;;;;;11.70;7.90;;;;;;;3.01;100.00;98578.29;432415;1262;140365;-63
2024/01/01 21:22:02;;;;;;;12.00;7.60;;;;;;;3.00;100.00;98585.40;432731;1259;139302;-62
2024/01/01 21:32:08;;;;;;;10.30;5.90;;;;;;;3.04;100.00;98585.23;432610;1259;139550;-62
2024/01/01 21:42:14;;;;;;;12.20;7.00;;;;;;;3.13;100.00;98586.02;435044;1263;139436;-62
2024/01/01 21:52:20;;;;;;;12.00;6.20;;;;;;;3.14;100.00;98584.55;432271;1265;139060;-62
2024/01/01 22:02:27;;;;;;;10.00;6.10;;;;;;;3.14;100.00;98584.89;432584;1263;140105;-62
2024/01/01 22:12:33;;;;;;;7.10;5.40;;;;;;;3.21;100.00;98590.45;432537;1263;139856;-62
2024/01/01 22:22:39;;;;;;;9.50;5.40;;;;;;;3.30;100.00;98593.45;432892;1260;139226;-62
2024/01/01 22:32:45;;;;;;;7.00;4.60;;;;;;;3.36;100.00;98592.63;433714;1265;138989;-62
2024/01/01 22:42:51;;;;;;;7.30;4.30;;;;;;;3.37;100.00;98593.43;436112;1263;139247;-61
2024/01/01 22:52:57;;;;;;;8.50;5.30;;;;;;;3.38;100.00;98594.64;432897;1265;139808;-62
2024/01/01 23:03:04;;;;;;;10.40;5.60;;;;;;;3.32;100.00;98599.73;433247;1263;140028;-62
2024/01/01 23:13:09;;;;;;;;;;;;;;;3.32;100.00;98607.17;432756;1265;139008;-62
2024/01/01 23:23:15;;;;;;;9.40;6.60;;;;;;;3.33;100.00;98602.09;434468;1263;126417;-61
2024/01/01 23:33:21;;;;;;;13.40;7.40;;;;;;;3.33;100.00;98596.77;432663;1263;138799;-61
2024/01/01 23:43:27;;;;;;;13.90;8.90;;;;;;;3.27;100.00;98592.92;432441;1263;140096;-61
2024/01/01 23:53:33;;;;;;;15.40;8.90;;;;;;;3.16;100.00;98593.43;432358;1263;138679;-62
